Terminal Aerodrome Forecast
Issued by NWS Nashville, TN

Home | Current Version | Previous Version | Text Only | Print | Product List | Glossary On
Versions: 1 2 3 4 5 6 7 8 9 10 11 12 13 14 15 16 17 18
211
FTUS44 KOHX 171124
TAFCSV
TAF
KCSV 171124Z 1712/1812 07003KT P6SM VCSH BKN090
     FM171500 VRB03KT 5SM -SHRA OVC050
     FM171900 17006KT P6SM OVC050
     FM172100 20005KT P6SM OVC014
     FM180200 18004KT 5SM -DZ BR OVC002
     FM180800 19003KT 1SM -DZ BR OVC001=

USA.gov is the U.S. government's official web portal to all federal, state and local government web resources and services.